createdAt,value
2022-09-29T00:00:31.979Z,7.50
2022-09-29T00:02:58.663Z,7.50
2022-09-29T00:05:25.382Z,7.50
2022-09-29T00:07:51.992Z,7.50
2022-09-29T00:10:18.952Z,7.50
2022-09-29T00:12:46.601Z,7.50
2022-09-29T00:15:13.912Z,7.40
2022-09-29T00:17:46.553Z,7.40
2022-09-29T00:20:24.625Z,7.30
2022-09-29T00:22:51.702Z,7.30
2022-09-29T00:25:19.235Z,7.30
2022-09-29T00:27:46.011Z,7.20
2022-09-29T00:30:12.934Z,7.20
2022-09-29T00:32:39.673Z,7.20
2022-09-29T00:35:08.415Z,7.10
2022-09-29T00:37:35.388Z,7.10
2022-09-29T00:40:03.179Z,7.10
2022-09-29T00:42:32.718Z,7.10
2022-09-29T00:45:23.153Z,7.00
2022-09-29T00:47:57.835Z,7.00
2022-09-29T00:50:51.880Z,7.00
2022-09-29T00:53:21.874Z,7.00
2022-09-29T00:55:58.621Z,7.00
2022-09-29T00:58:33.321Z,7.00
2022-09-29T01:01:00.190Z,7.00
2022-09-29T01:03:32.307Z,7.00
2022-09-29T01:06:06.457Z,7.00
2022-09-29T01:08:40.366Z,7.00
2022-09-29T01:11:07.017Z,7.00
2022-09-29T01:13:35.223Z,7.00
2022-09-29T01:16:02.181Z,7.00
2022-09-29T01:18:29.890Z,7.10
2022-09-29T01:21:37.857Z,7.10
2022-09-29T01:24:31.558Z,7.10
2022-09-29T01:27:32.163Z,7.20
2022-09-29T01:30:11.976Z,7.20
2022-09-29T01:33:01.753Z,7.30
2022-09-29T01:35:50.293Z,7.30
2022-09-29T01:38:42.720Z,7.30
2022-09-29T01:41:16.187Z,7.40
2022-09-29T01:44:08.873Z,7.40
2022-09-29T01:46:47.940Z,7.30
2022-09-29T01:49:15.936Z,7.30
2022-09-29T01:51:53.122Z,7.30
2022-09-29T01:54:25.638Z,7.30
2022-09-29T01:57:01.874Z,7.30
2022-09-29T01:59:36.720Z,7.20
2022-09-29T02:02:09.360Z,7.20
2022-09-29T02:04:53.869Z,7.20
2022-09-29T02:07:33.933Z,7.20
2022-09-29T02:10:10.471Z,7.20
2022-09-29T02:12:40.451Z,7.20
2022-09-29T02:15:12.326Z,7.20
2022-09-29T02:17:43.037Z,7.20
2022-09-29T02:20:11.908Z,7.20
2022-09-29T02:22:39.206Z,7.20
2022-09-29T02:25:09.181Z,7.20
2022-09-29T02:27:36.618Z,7.20
2022-09-29T02:30:03.996Z,7.20
2022-09-29T02:32:33.103Z,7.30
2022-09-29T02:34:59.940Z,7.30
2022-09-29T02:37:52.094Z,7.30
2022-09-29T02:40:51.196Z,7.30
2022-09-29T02:43:44.450Z,7.40
2022-09-29T02:46:29.260Z,7.40
2022-09-29T02:49:32.766Z,7.40
2022-09-29T02:52:11.420Z,7.40
2022-09-29T02:54:49.482Z,7.40
2022-09-29T02:57:33.612Z,7.40
2022-09-29T03:00:14.475Z,7.40
2022-09-29T03:02:43.133Z,7.40
2022-09-29T03:05:13.492Z,7.30
2022-09-29T03:07:41.144Z,7.30
2022-09-29T03:10:08.929Z,7.30
2022-09-29T03:12:36.109Z,7.30
2022-09-29T03:15:03.478Z,7.30
2022-09-29T03:17:31.280Z,7.20
2022-09-29T03:19:57.949Z,7.20
2022-09-29T03:22:25.161Z,7.20
2022-09-29T03:24:51.860Z,7.20
2022-09-29T03:27:18.690Z,7.20
2022-09-29T03:29:45.316Z,7.20
2022-09-29T03:32:12.039Z,7.20
2022-09-29T03:34:38.984Z,7.20
2022-09-29T03:37:05.745Z,7.20
2022-09-29T03:39:32.359Z,7.20
2022-09-29T03:41:59.059Z,7.30
2022-09-29T03:44:25.674Z,7.30
2022-09-29T03:46:52.413Z,7.30
2022-09-29T03:49:19.060Z,7.30
2022-09-29T03:51:45.891Z,7.30
2022-09-29T03:54:12.577Z,7.30
2022-09-29T03:56:39.567Z,7.30
2022-09-29T03:59:09.365Z,7.30
2022-09-29T04:01:38.169Z,7.30
2022-09-29T04:04:06.882Z,7.30
2022-09-29T04:06:34.002Z,7.30
2022-09-29T04:09:00.813Z,7.30
2022-09-29T04:11:27.875Z,7.30
2022-09-29T04:13:54.667Z,7.30
2022-09-29T04:16:21.487Z,7.30
2022-09-29T04:18:48.216Z,7.30
2022-09-29T04:21:15.074Z,7.30
2022-09-29T04:23:42.301Z,7.30
2022-09-29T04:26:09.280Z,7.30
2022-09-29T04:28:37.359Z,7.30
2022-09-29T04:31:04.335Z,7.30
2022-09-29T04:33:31.364Z,7.40
2022-09-29T04:35:59.476Z,7.40
2022-09-29T04:38:26.283Z,7.40
2022-09-29T04:40:52.922Z,7.40
2022-09-29T04:43:19.812Z,7.40
2022-09-29T04:45:46.556Z,7.40
2022-09-29T04:48:13.204Z,7.40
2022-09-29T04:50:39.887Z,7.50
2022-09-29T04:53:07.469Z,7.50
2022-09-29T04:55:34.438Z,7.50
2022-09-29T04:58:01.211Z,7.50
2022-09-29T05:00:27.832Z,7.50
2022-09-29T05:02:54.441Z,7.50
2022-09-29T05:05:21.172Z,7.50
2022-09-29T05:07:48.627Z,7.50
2022-09-29T05:10:15.337Z,7.50
2022-09-29T05:12:47.120Z,7.50
2022-09-29T05:15:13.798Z,7.50
2022-09-29T05:17:40.518Z,7.50
2022-09-29T05:20:07.305Z,7.50
2022-09-29T05:22:33.901Z,7.50
2022-09-29T05:25:00.565Z,7.50
2022-09-29T05:27:27.277Z,7.50
2022-09-29T05:29:53.943Z,7.50
2022-09-29T05:32:20.598Z,7.50
2022-09-29T05:34:47.182Z,7.50
2022-09-29T05:37:13.768Z,7.50
2022-09-29T05:39:42.043Z,7.60
2022-09-29T05:42:11.638Z,7.60
2022-09-29T05:44:38.274Z,7.60
2022-09-29T05:47:04.961Z,7.60
2022-09-29T05:49:32.846Z,7.60
2022-09-29T05:52:00.101Z,7.60
2022-09-29T05:54:27.568Z,7.70
2022-09-29T05:56:54.690Z,7.70
2022-09-29T05:59:21.428Z,7.70
2022-09-29T06:01:48.266Z,7.80
2022-09-29T06:04:15.257Z,7.80
2022-09-29T06:06:41.865Z,7.80
2022-09-29T06:09:08.743Z,7.80
2022-09-29T06:11:35.409Z,7.80
2022-09-29T06:14:02.792Z,7.80
2022-09-29T06:16:30.494Z,7.80
2022-09-29T06:18:59.400Z,7.80
2022-09-29T06:21:27.586Z,7.90
2022-09-29T06:23:55.593Z,7.90
2022-09-29T06:26:24.144Z,7.90
2022-09-29T06:28:52.234Z,7.90
2022-09-29T06:31:20.797Z,7.90
2022-09-29T06:33:47.574Z,7.90
2022-09-29T06:36:42.626Z,7.90
2022-09-29T06:39:13.388Z,8.00
2022-09-29T06:41:40.574Z,8.00
2022-09-29T06:44:07.266Z,8.00
2022-09-29T06:46:33.944Z,8.10
2022-09-29T06:49:00.587Z,8.10
2022-09-29T06:51:38.785Z,8.10
2022-09-29T06:54:12.560Z,8.10
2022-09-29T06:56:40.100Z,8.10
2022-09-29T06:59:07.401Z,8.20
2022-09-29T07:01:34.310Z,8.30
2022-09-29T07:04:02.401Z,8.30
2022-09-29T07:06:30.310Z,8.30
2022-09-29T07:08:58.745Z,8.30
2022-09-29T07:11:26.352Z,8.40
2022-09-29T07:13:54.949Z,8.50
2022-09-29T07:16:24.354Z,8.50
2022-09-29T07:18:51.837Z,8.50
2022-09-29T07:21:19.170Z,8.60
2022-09-29T07:23:47.043Z,8.70
2022-09-29T07:26:16.618Z,8.70
2022-09-29T07:28:44.736Z,8.70
2022-09-29T07:31:17.584Z,8.80
2022-09-29T07:33:45.615Z,8.90
2022-09-29T07:36:14.002Z,8.90
2022-09-29T07:38:40.723Z,9.00
2022-09-29T07:41:10.657Z,9.00
2022-09-29T07:43:38.412Z,9.10
2022-09-29T07:46:05.825Z,9.10
2022-09-29T07:48:33.720Z,9.10
2022-09-29T07:51:04.983Z,9.20
2022-09-29T07:53:32.730Z,9.30
2022-09-29T07:56:04.354Z,9.30
2022-09-29T07:58:32.495Z,9.40
2022-09-29T08:01:00.414Z,9.50
2022-09-29T08:03:27.482Z,9.50
2022-09-29T08:05:54.240Z,9.60
2022-09-29T08:08:20.890Z,9.70
2022-09-29T08:10:53.427Z,9.80
2022-09-29T08:13:20.959Z,9.80
2022-09-29T08:15:47.581Z,9.90
2022-09-29T08:18:14.209Z,9.90
2022-09-29T08:20:40.915Z,10.00
2022-09-29T08:23:07.509Z,10.10
2022-09-29T08:25:36.211Z,10.10
2022-09-29T08:28:02.890Z,10.20
2022-09-29T08:30:29.805Z,10.30
2022-09-29T08:32:56.765Z,10.30
2022-09-29T08:35:23.495Z,10.40
2022-09-29T08:37:50.108Z,10.40
2022-09-29T08:40:17.797Z,10.50
2022-09-29T08:42:56.396Z,10.60
2022-09-29T08:45:32.569Z,10.70
2022-09-29T08:48:15.785Z,10.80
2022-09-29T08:51:01.794Z,10.90
2022-09-29T08:53:32.823Z,11.00
2022-09-29T08:56:09.564Z,11.10
2022-09-29T08:58:38.586Z,11.10
2022-09-29T09:01:27.234Z,11.20
2022-09-29T09:04:05.871Z,11.40
2022-09-29T09:07:15.893Z,11.50
2022-09-29T09:10:02.179Z,11.60
2022-09-29T09:12:36.410Z,11.70
2022-09-29T09:15:21.552Z,11.70
2022-09-29T09:18:13.723Z,11.80
2022-09-29T09:20:46.772Z,12.00
2022-09-29T09:23:30.849Z,12.00
2022-09-29T09:26:02.987Z,12.10
2022-09-29T09:28:53.237Z,12.10
2022-09-29T09:31:40.602Z,12.20
2022-09-29T09:34:35.090Z,12.30
2022-09-29T09:37:21.793Z,12.40
2022-09-29T09:39:57.225Z,12.60
2022-09-29T09:42:30.650Z,12.70
2022-09-29T09:45:13.631Z,12.80
2022-09-29T09:47:51.564Z,12.90
2022-09-29T09:50:20.917Z,13.00
2022-09-29T09:52:50.966Z,12.90
2022-09-29T09:55:24.822Z,13.00
2022-09-29T09:58:28.888Z,13.00
2022-09-29T10:00:58.707Z,13.00
2022-09-29T10:03:27.762Z,13.00
2022-09-29T10:05:54.644Z,13.00
2022-09-29T10:08:27.304Z,13.10
2022-09-29T10:10:59.511Z,13.10
2022-09-29T10:13:28.798Z,13.30
2022-09-29T10:16:31.388Z,13.40
2022-09-29T10:18:58.124Z,13.40
2022-09-29T10:22:11.638Z,13.50
2022-09-29T10:24:38.334Z,13.60
2022-09-29T10:27:04.963Z,13.70
2022-09-29T10:29:39.760Z,13.80
2022-09-29T10:32:14.041Z,13.80
2022-09-29T10:34:42.708Z,13.80
2022-09-29T10:37:35.429Z,13.90
2022-09-29T10:40:23.978Z,14.10
2022-09-29T10:42:51.607Z,14.10
2022-09-29T10:48:21.408Z,14.30
2022-09-29T10:50:50.278Z,14.40
2022-09-29T10:53:36.234Z,14.50
2022-09-29T10:56:11.066Z,14.60
2022-09-29T11:01:43.000Z,14.70
2022-09-29T11:04:19.401Z,14.80
2022-09-29T11:06:46.565Z,14.80
2022-09-29T11:09:13.272Z,14.90
2022-09-29T11:11:57.945Z,14.90
2022-09-29T11:14:39.022Z,14.90
2022-09-29T11:17:24.213Z,14.90
2022-09-29T11:19:53.215Z,14.90
2022-09-29T11:22:40.588Z,15.00
2022-09-29T11:25:25.946Z,15.10
2022-09-29T11:28:29.329Z,15.30
2022-09-29T11:30:55.930Z,15.40
2022-09-29T11:33:52.502Z,15.20
2022-09-29T11:36:57.823Z,15.40
2022-09-29T11:39:48.033Z,15.60
2022-09-29T11:42:43.994Z,15.60
2022-09-29T11:48:32.257Z,15.60
2022-09-29T11:51:21.897Z,15.60
2022-09-29T11:54:20.103Z,15.70
2022-09-29T11:56:51.547Z,15.90
2022-09-29T11:59:51.873Z,15.80
2022-09-29T12:02:24.572Z,16.10
2022-09-29T12:05:23.809Z,16.10
2022-09-29T12:08:14.174Z,16.50
2022-09-29T12:11:47.333Z,16.70
2022-09-29T12:14:18.381Z,17.00
2022-09-29T12:17:13.243Z,17.30
2022-09-29T12:19:43.110Z,17.20
2022-09-29T12:22:15.520Z,17.20
2022-09-29T12:24:53.843Z,17.20
2022-09-29T12:27:26.098Z,17.20
2022-09-29T12:30:02.529Z,17.10
2022-09-29T12:32:51.830Z,17.30
2022-09-29T12:35:25.763Z,17.50
2022-09-29T12:38:30.177Z,17.80
2022-09-29T12:41:11.313Z,18.20
2022-09-29T12:44:06.022Z,18.10
2022-09-29T12:46:41.563Z,18.10
2022-09-29T12:49:46.857Z,17.70
2022-09-29T12:52:25.004Z,17.30
2022-09-29T12:54:57.405Z,17.00
2022-09-29T12:57:34.718Z,16.90
2022-09-29T13:00:15.116Z,16.90
2022-09-29T13:03:01.298Z,16.90
2022-09-29T13:05:43.922Z,16.90
2022-09-29T13:08:52.759Z,16.90
2022-09-29T13:11:41.027Z,16.90
2022-09-29T13:14:25.965Z,17.30
2022-09-29T13:17:17.551Z,17.90
2022-09-29T13:19:57.461Z,18.20
2022-09-29T13:22:57.996Z,18.60
2022-09-29T13:25:56.040Z,19.00
2022-09-29T13:28:48.142Z,19.50
2022-09-29T13:31:21.606Z,20.00
2022-09-29T13:33:52.692Z,20.20
2022-09-29T13:36:36.259Z,20.50
2022-09-29T13:39:06.331Z,20.70
2022-09-29T13:41:39.640Z,20.60
2022-09-29T13:44:23.938Z,20.60
2022-09-29T13:46:52.484Z,20.50
2022-09-29T13:49:21.841Z,20.30
2022-09-29T13:51:50.620Z,20.10
2022-09-29T13:54:32.900Z,19.90
2022-09-29T13:57:06.865Z,19.60
2022-09-29T13:59:34.009Z,19.20
2022-09-29T14:02:01.667Z,18.80
2022-09-29T14:04:53.219Z,18.60
2022-09-29T14:07:44.910Z,18.40
2022-09-29T14:10:24.371Z,17.90
2022-09-29T14:13:03.708Z,17.60
2022-09-29T14:15:37.921Z,17.50
2022-09-29T14:18:15.024Z,17.30
2022-09-29T14:21:03.567Z,17.20
2022-09-29T14:23:49.393Z,17.00
2022-09-29T14:26:48.842Z,17.00
2022-09-29T14:29:24.067Z,16.70
2022-09-29T14:31:54.295Z,16.50
2022-09-29T14:34:23.225Z,16.40
2022-09-29T14:36:53.719Z,16.30
2022-09-29T14:39:26.360Z,16.30
2022-09-29T14:41:53.656Z,16.20
2022-09-29T14:44:25.585Z,16.10
2022-09-29T14:47:28.093Z,16.10
2022-09-29T14:50:32.732Z,16.00
2022-09-29T14:53:34.386Z,15.90
2022-09-29T14:56:30.969Z,15.90
2022-09-29T14:59:20.967Z,15.80
2022-09-29T15:02:01.871Z,15.70
2022-09-29T15:04:28.661Z,15.70
2022-09-29T15:06:55.338Z,15.60
2022-09-29T15:09:24.927Z,15.60
2022-09-29T15:11:54.904Z,15.60
2022-09-29T15:14:21.452Z,15.50
2022-09-29T15:16:59.647Z,15.50
2022-09-29T15:19:45.460Z,15.40
2022-09-29T15:22:35.475Z,15.20
2022-09-29T15:25:30.452Z,15.10
2022-09-29T15:28:10.881Z,15.10
2022-09-29T15:30:37.976Z,15.10
2022-09-29T15:33:16.782Z,15.00
2022-09-29T15:35:44.756Z,15.00
2022-09-29T15:38:11.369Z,15.00
2022-09-29T15:41:03.652Z,14.90
2022-09-29T15:43:40.982Z,14.90
2022-09-29T15:46:18.268Z,14.80
2022-09-29T15:49:11.392Z,14.80
2022-09-29T15:51:39.342Z,14.70
2022-09-29T15:54:10.581Z,14.70
2022-09-29T15:56:57.030Z,14.60
2022-09-29T15:59:41.663Z,14.60
2022-09-29T16:02:21.201Z,14.60
2022-09-29T16:04:50.365Z,14.70
2022-09-29T16:07:34.505Z,14.80
2022-09-29T16:10:20.921Z,14.80
2022-09-29T16:13:06.113Z,14.70
2022-09-29T16:15:41.953Z,14.70
2022-09-29T16:18:16.070Z,14.60
2022-09-29T16:20:44.897Z,14.60
2022-09-29T16:23:25.415Z,14.50
2022-09-29T16:26:07.355Z,14.40
2022-09-29T16:28:36.405Z,14.40
2022-09-29T16:31:04.582Z,14.40
2022-09-29T16:33:34.759Z,14.30
2022-09-29T16:36:06.321Z,14.20
2022-09-29T16:38:41.201Z,14.20
2022-09-29T16:41:37.713Z,14.00
2022-09-29T16:44:30.647Z,13.90
2022-09-29T16:47:20.933Z,13.80
2022-09-29T16:49:49.993Z,13.60
2022-09-29T16:52:25.975Z,13.60
2022-09-29T16:55:16.924Z,13.40
2022-09-29T16:58:15.708Z,13.40
2022-09-29T17:00:44.823Z,13.30
2022-09-29T17:03:12.213Z,13.10
2022-09-29T17:05:43.792Z,13.00
2022-09-29T17:08:25.418Z,12.90
2022-09-29T17:10:53.657Z,12.80
2022-09-29T17:13:21.097Z,12.60
2022-09-29T17:15:51.560Z,12.50
2022-09-29T17:18:20.024Z,12.40
2022-09-29T17:20:46.888Z,12.30
2022-09-29T17:23:13.808Z,12.20
2022-09-29T17:25:43.311Z,12.10
2022-09-29T17:28:20.483Z,12.00
2022-09-29T17:30:48.708Z,11.90
2022-09-29T17:33:17.024Z,11.80
2022-09-29T17:35:55.206Z,11.70
2022-09-29T17:38:23.819Z,11.70
2022-09-29T17:40:52.772Z,11.50
2022-09-29T17:43:19.681Z,11.40
2022-09-29T17:45:46.642Z,11.30
2022-09-29T17:48:15.224Z,11.10
2022-09-29T17:50:47.078Z,11.00
2022-09-29T17:53:15.085Z,11.00
2022-09-29T17:55:42.450Z,10.90
2022-09-29T17:58:16.224Z,10.80
2022-09-29T18:00:47.050Z,10.70
2022-09-29T18:03:13.748Z,10.70
2022-09-29T18:05:42.813Z,10.60
2022-09-29T18:08:29.635Z,10.60
2022-09-29T18:11:01.336Z,10.50
2022-09-29T18:13:31.253Z,10.40
2022-09-29T18:16:02.048Z,10.30
2022-09-29T18:18:29.235Z,10.20
2022-09-29T18:20:56.249Z,10.10
2022-09-29T18:23:24.147Z,10.00
2022-09-29T18:25:52.368Z,9.90
2022-09-29T18:28:19.599Z,9.90
2022-09-29T18:30:49.577Z,9.80
2022-09-29T18:33:18.789Z,9.60
2022-09-29T18:35:51.246Z,9.60
2022-09-29T18:38:17.985Z,9.60
2022-09-29T18:40:45.234Z,9.50
2022-09-29T18:43:13.598Z,9.50
2022-09-29T18:45:43.834Z,9.40
2022-09-29T18:48:11.599Z,9.30
2022-09-29T18:50:43.293Z,9.20
2022-09-29T18:53:11.498Z,9.20
2022-09-29T18:55:38.324Z,9.10
2022-09-29T18:58:05.020Z,9.00
2022-09-29T19:00:39.856Z,9.00
2022-09-29T19:03:06.495Z,8.90
2022-09-29T19:05:34.765Z,8.90
2022-09-29T19:08:03.446Z,8.80
2022-09-29T19:10:33.375Z,8.70
2022-09-29T19:13:04.132Z,8.70
2022-09-29T19:15:34.687Z,8.70
2022-09-29T19:18:02.552Z,8.60
2022-09-29T19:20:30.022Z,8.60
2022-09-29T19:23:02.489Z,8.50
2022-09-29T19:25:35.678Z,8.40
2022-09-29T19:28:06.729Z,8.40
2022-09-29T19:30:38.177Z,8.30
2022-09-29T19:33:06.499Z,8.30
2022-09-29T19:35:33.700Z,8.20
2022-09-29T19:38:00.647Z,8.20
2022-09-29T19:40:30.924Z,8.10
2022-09-29T19:42:58.597Z,8.10
2022-09-29T19:45:25.821Z,8.00
2022-09-29T19:47:56.986Z,8.00
2022-09-29T19:50:43.516Z,8.00
2022-09-29T19:55:42.222Z,8.10
2022-09-29T19:58:08.913Z,8.30
2022-09-29T20:00:36.106Z,8.50
2022-09-29T20:03:03.065Z,8.70
2022-09-29T20:05:29.809Z,9.00
2022-09-29T20:07:56.804Z,9.10
2022-09-29T20:10:24.290Z,8.90
2022-09-29T20:12:50.920Z,8.70
2022-09-29T20:15:17.589Z,8.50
2022-09-29T20:17:44.642Z,8.30
2022-09-29T20:20:11.885Z,8.10
2022-09-29T20:22:38.930Z,8.00
2022-09-29T20:25:07.403Z,7.90
2022-09-29T20:27:35.773Z,7.70
2022-09-29T20:30:05.244Z,7.60
2022-09-29T20:32:33.607Z,7.60
2022-09-29T20:35:00.549Z,7.50
2022-09-29T20:37:28.999Z,7.40
2022-09-29T20:39:56.076Z,7.30
2022-09-29T20:42:23.517Z,7.30
2022-09-29T20:44:56.057Z,7.20
2022-09-29T20:47:24.910Z,7.20
2022-09-29T20:49:55.081Z,7.10
2022-09-29T20:52:24.991Z,7.10
2022-09-29T20:54:51.697Z,7.00
2022-09-29T20:57:18.372Z,7.00
2022-09-29T20:59:45.017Z,7.00
2022-09-29T21:02:13.394Z,6.90
2022-09-29T21:04:42.335Z,6.90
2022-09-29T21:07:28.992Z,6.80
2022-09-29T21:09:55.624Z,6.80
2022-09-29T21:12:22.221Z,6.80
2022-09-29T21:14:49.020Z,6.70
2022-09-29T21:17:15.655Z,6.70
2022-09-29T21:19:42.366Z,6.60
2022-09-29T21:22:09.263Z,6.60
2022-09-29T21:24:38.901Z,6.60
2022-09-29T21:27:06.809Z,6.50
2022-09-29T21:29:33.747Z,6.50
2022-09-29T21:32:00.591Z,6.50
2022-09-29T21:34:27.734Z,6.50
2022-09-29T21:36:54.385Z,6.50
2022-09-29T21:39:21.112Z,6.50
2022-09-29T21:44:40.116Z,6.40
2022-09-29T21:47:06.815Z,6.40
2022-09-29T21:49:33.440Z,6.40
2022-09-29T21:52:02.096Z,6.30
2022-09-29T21:54:30.213Z,6.30
2022-09-29T21:56:56.940Z,6.30
2022-09-29T21:59:24.317Z,6.30
2022-09-29T22:01:52.074Z,6.20
2022-09-29T22:04:19.433Z,6.20
2022-09-29T22:06:46.492Z,6.20
2022-09-29T22:09:19.792Z,6.20
2022-09-29T22:11:48.160Z,6.10
2022-09-29T22:14:16.045Z,6.10
2022-09-29T22:16:43.077Z,6.10
2022-09-29T22:19:22.992Z,6.10
2022-09-29T22:21:51.371Z,6.10
2022-09-29T22:24:18.029Z,6.10
2022-09-29T22:26:44.635Z,6.00
2022-09-29T22:29:11.443Z,6.00
2022-09-29T22:31:40.492Z,6.00
2022-09-29T22:34:08.253Z,6.00
2022-09-29T22:36:35.304Z,5.90
2022-09-29T22:39:03.740Z,6.00
2022-09-29T22:41:30.985Z,6.00
2022-09-29T22:43:59.432Z,5.90
2022-09-29T22:46:27.847Z,5.90
2022-09-29T22:48:54.929Z,5.90
2022-09-29T22:51:21.519Z,5.90
2022-09-29T22:53:48.910Z,5.90
2022-09-29T22:56:18.599Z,5.80
2022-09-29T22:58:45.521Z,5.80
2022-09-29T23:01:15.271Z,5.80
2022-09-29T23:03:44.139Z,5.80
2022-09-29T23:06:11.474Z,5.70
2022-09-29T23:08:38.643Z,5.80
2022-09-29T23:11:08.040Z,5.70
2022-09-29T23:13:39.999Z,5.70
2022-09-29T23:16:12.526Z,5.70
2022-09-29T23:18:45.021Z,5.70
2022-09-29T23:21:14.873Z,5.70
2022-09-29T23:23:41.909Z,5.70
2022-09-29T23:26:09.091Z,5.70
2022-09-29T23:28:36.120Z,5.70
2022-09-29T23:31:07.416Z,5.70
2022-09-29T23:33:34.129Z,5.70
2022-09-29T23:36:15.243Z,5.60
2022-09-29T23:39:02.374Z,5.60
2022-09-29T23:41:30.642Z,5.60
2022-09-29T23:43:59.606Z,5.60
2022-09-29T23:46:31.451Z,5.60
2022-09-29T23:49:02.705Z,5.60
2022-09-29T23:51:33.146Z,5.60
2022-09-29T23:54:00.407Z,5.60
2022-09-29T23:56:27.688Z,5.60
2022-09-29T23:58:55.425Z,5.60
